Rosario del Tala, Argentina
Current Conditions -  °F | °C
As of 2:00 PM on Saturday 22 Nov 2014 (Local Time) from SUSO Reporting Station
Broken Clouds Broken Clouds  
Wind Chill: 72°   Ceiling: 2300
Heat Index: 72°   Visibility: 6mi
Dew Point: 54°   Wind: 9mph
Humidity: 53%   Direction: 200°SSW
Pressure: 29.91"   Gusts: NA
Location:  32.3°S, 59.15°W
Report Text: SUSO 221700Z 20008KT 9999 BKN023 22/12 Q1013
Loading
Personal Weather Stations






























Interactive Weather Map New forecast layout! Learn more

10-Day Weather Forecast

Advertisements
Track Severe Weather on mobile